createdAt,value
2022-08-17T00:02:26.502Z,20.23
2022-08-17T00:05:30.679Z,20.22
2022-08-17T00:08:37.864Z,20.25
2022-08-17T00:11:43.784Z,20.17
2022-08-17T00:15:10.715Z,20.27
2022-08-17T00:19:01.091Z,20.18
2022-08-17T00:22:30.795Z,20.10
2022-08-17T00:25:03.234Z,20.04
2022-08-17T00:28:06.533Z,20.00
2022-08-17T00:31:11.013Z,20.09
2022-08-17T00:34:13.942Z,20.00
2022-08-17T00:37:16.711Z,19.94
2022-08-17T00:40:21.559Z,19.93
2022-08-17T00:43:32.295Z,19.92
2022-08-17T00:46:37.805Z,19.85
2022-08-17T00:49:40.749Z,19.89
2022-08-17T00:52:47.059Z,19.86
2022-08-17T00:55:51.234Z,19.78
2022-08-17T00:58:55.651Z,19.77
2022-08-17T01:01:59.272Z,19.70
2022-08-17T01:05:02.309Z,19.71
2022-08-17T01:08:05.667Z,19.73
2022-08-17T01:11:10.250Z,19.65
2022-08-17T01:14:13.345Z,19.54
2022-08-17T01:17:16.000Z,19.51
2022-08-17T01:20:19.232Z,19.58
2022-08-17T01:23:23.743Z,19.60
2022-08-17T01:26:30.227Z,19.59
2022-08-17T01:29:33.894Z,19.52
2022-08-17T01:32:37.093Z,19.47
2022-08-17T01:35:47.158Z,19.37
2022-08-17T01:38:52.194Z,19.36
2022-08-17T01:41:57.417Z,19.33
2022-08-17T01:45:04.653Z,19.23
2022-08-17T01:48:08.740Z,19.25
2022-08-17T01:51:11.611Z,19.23
2022-08-17T01:54:20.371Z,19.19
2022-08-17T01:57:25.496Z,19.15
2022-08-17T02:00:59.870Z,19.08
2022-08-17T02:04:00.926Z,19.07
2022-08-17T02:07:04.392Z,19.19
2022-08-17T02:10:19.833Z,19.16
2022-08-17T02:13:29.645Z,19.19
2022-08-17T02:16:37.703Z,19.24
2022-08-17T02:19:41.850Z,19.27
2022-08-17T02:22:46.822Z,19.31
2022-08-17T02:25:51.142Z,19.35
2022-08-17T02:28:55.365Z,19.33
2022-08-17T02:32:02.243Z,19.31
2022-08-17T02:35:09.620Z,19.33
2022-08-17T02:38:12.419Z,19.33
2022-08-17T02:41:18.802Z,19.25
2022-08-17T02:44:39.758Z,19.23
2022-08-17T02:47:48.404Z,19.23
2022-08-17T02:50:51.309Z,19.23
2022-08-17T02:54:02.205Z,19.17
2022-08-17T02:57:20.945Z,19.21
2022-08-17T03:00:26.985Z,19.19
2022-08-17T03:03:29.653Z,19.15
2022-08-17T03:06:33.990Z,19.13
2022-08-17T03:09:38.010Z,19.17
2022-08-17T03:12:44.641Z,19.10
2022-08-17T03:15:50.724Z,19.15
2022-08-17T03:18:55.012Z,19.22
2022-08-17T03:22:01.398Z,19.30
2022-08-17T03:25:27.638Z,19.26
2022-08-17T03:28:33.588Z,19.18
2022-08-17T03:31:37.021Z,19.16
2022-08-17T03:34:40.123Z,19.16
2022-08-17T03:37:43.995Z,19.19
2022-08-17T03:40:57.603Z,19.09
2022-08-17T03:44:06.472Z,19.07
2022-08-17T03:47:40.949Z,18.99
2022-08-17T03:51:09.332Z,18.95
2022-08-17T03:54:38.609Z,18.87
2022-08-17T03:57:48.920Z,18.73
2022-08-17T04:00:53.002Z,18.70
2022-08-17T04:03:55.645Z,18.67
2022-08-17T04:07:02.377Z,18.54
2022-08-17T04:10:05.498Z,18.46
2022-08-17T04:13:10.073Z,18.43
2022-08-17T04:16:15.709Z,18.52
2022-08-17T04:19:18.686Z,18.63
2022-08-17T04:22:31.882Z,18.74
2022-08-17T04:25:39.035Z,18.82
2022-08-17T04:28:42.277Z,18.82
2022-08-17T04:31:46.273Z,18.69
2022-08-17T04:34:49.828Z,18.61
2022-08-17T04:37:53.850Z,18.70
2022-08-17T04:41:15.405Z,18.74
2022-08-17T04:44:37.139Z,18.70
2022-08-17T04:47:42.782Z,18.74
2022-08-17T04:50:46.819Z,18.87
2022-08-17T04:54:09.841Z,18.94
2022-08-17T04:57:12.705Z,19.01
2022-08-17T05:00:16.164Z,19.33
2022-08-17T05:03:20.884Z,19.43
2022-08-17T05:06:27.071Z,19.48
2022-08-17T05:09:30.454Z,19.56
2022-08-17T05:12:34.497Z,19.61
2022-08-17T05:15:39.289Z,19.60
2022-08-17T05:18:50.308Z,19.76
2022-08-17T05:21:53.045Z,19.91
2022-08-17T05:24:55.800Z,19.98
2022-08-17T05:27:59.439Z,20.12
2022-08-17T05:31:05.135Z,20.18
2022-08-17T05:34:09.085Z,20.26
2022-08-17T05:37:14.613Z,20.39
2022-08-17T05:40:18.343Z,20.51
2022-08-17T05:43:24.080Z,20.49
2022-08-17T05:46:29.528Z,20.66
2022-08-17T05:49:34.268Z,20.96
2022-08-17T05:52:43.823Z,21.22
2022-08-17T05:55:51.748Z,21.43
2022-08-17T05:59:02.150Z,21.64
2022-08-17T06:02:10.625Z,21.82
2022-08-17T06:05:34.856Z,21.94
2022-08-17T06:08:44.666Z,22.02
2022-08-17T06:11:53.443Z,22.06
2022-08-17T06:15:07.511Z,21.90
2022-08-17T06:18:17.202Z,21.95
2022-08-17T06:21:24.030Z,22.05
2022-08-17T06:24:39.451Z,22.30
2022-08-17T06:27:46.470Z,22.63
2022-08-17T06:30:58.382Z,22.84
2022-08-17T06:34:06.037Z,22.98
2022-08-17T06:37:21.424Z,22.90
2022-08-17T06:40:48.250Z,23.05
2022-08-17T06:43:58.593Z,23.46
2022-08-17T06:47:08.064Z,24.06
2022-08-17T06:50:17.028Z,24.70
2022-08-17T06:53:26.817Z,25.51
2022-08-17T06:56:53.313Z,25.88
2022-08-17T07:00:00.850Z,25.97
2022-08-17T07:03:11.259Z,26.28
2022-08-17T07:06:17.495Z,26.61
2022-08-17T07:09:26.972Z,26.58
2022-08-17T07:12:38.937Z,26.57
2022-08-17T07:15:43.316Z,26.65
2022-08-17T07:18:50.634Z,26.95
2022-08-17T07:22:01.726Z,26.94
2022-08-17T07:25:09.478Z,27.03
2022-08-17T07:28:13.040Z,26.86
2022-08-17T07:31:17.661Z,26.84
2022-08-17T07:34:20.410Z,26.90
2022-08-17T07:37:23.252Z,26.81
2022-08-17T07:40:32.159Z,27.05
2022-08-17T07:43:36.971Z,27.32
2022-08-17T07:47:07.020Z,27.54
2022-08-17T07:50:26.143Z,27.44
2022-08-17T07:53:31.170Z,27.26
2022-08-17T07:56:42.548Z,27.08
2022-08-17T08:00:16.286Z,27.18
2022-08-17T08:03:27.057Z,27.49
2022-08-17T08:06:29.857Z,27.54
2022-08-17T08:09:34.397Z,27.61
2022-08-17T08:12:41.128Z,27.89
2022-08-17T08:15:54.186Z,27.91
2022-08-17T08:18:59.816Z,27.78
2022-08-17T08:22:07.795Z,28.04
2022-08-17T08:25:22.261Z,28.10
2022-08-17T08:28:31.451Z,28.14
2022-08-17T08:31:47.810Z,27.74
2022-08-17T08:35:02.961Z,27.67
2022-08-17T08:38:11.935Z,27.96
2022-08-17T08:41:24.628Z,28.38
2022-08-17T08:45:01.177Z,28.36
2022-08-17T08:48:23.186Z,28.02
2022-08-17T08:51:41.834Z,27.89
2022-08-17T08:54:49.777Z,27.69
2022-08-17T08:57:58.892Z,27.63
2022-08-17T09:01:06.125Z,27.67
2022-08-17T09:04:25.198Z,27.83
2022-08-17T09:07:36.498Z,27.72
2022-08-17T09:11:01.220Z,27.83
2022-08-17T09:14:21.193Z,27.91
2022-08-17T09:17:34.995Z,27.76
2022-08-17T09:20:46.621Z,27.61
2022-08-17T09:24:02.337Z,27.69
2022-08-17T09:27:08.139Z,27.94
2022-08-17T09:30:12.903Z,27.72
2022-08-17T09:33:22.889Z,27.16
2022-08-17T09:36:29.230Z,26.88
2022-08-17T09:39:35.794Z,26.71
2022-08-17T09:42:45.485Z,26.73
2022-08-17T09:45:51.677Z,26.69
2022-08-17T09:48:59.356Z,26.49
2022-08-17T09:52:07.453Z,26.52
2022-08-17T09:55:10.804Z,26.52
2022-08-17T09:58:18.948Z,26.67
2022-08-17T10:01:31.360Z,26.87
2022-08-17T10:04:44.552Z,27.11
2022-08-17T10:07:52.601Z,27.39
2022-08-17T10:11:06.809Z,27.78
2022-08-17T10:14:37.457Z,27.99
2022-08-17T10:17:40.615Z,28.21
2022-08-17T10:20:48.519Z,28.97
2022-08-17T10:24:13.348Z,29.16
2022-08-17T10:27:19.119Z,29.07
2022-08-17T10:30:24.611Z,28.35
2022-08-17T10:33:33.490Z,28.48
2022-08-17T10:36:46.087Z,28.73
2022-08-17T10:39:57.356Z,28.80
2022-08-17T10:43:05.882Z,29.11
2022-08-17T10:46:31.122Z,29.77
2022-08-17T10:49:35.774Z,29.42
2022-08-17T10:52:50.027Z,28.73
2022-08-17T10:56:26.724Z,27.97
2022-08-17T10:59:51.650Z,27.97
2022-08-17T11:02:55.093Z,27.87
2022-08-17T11:06:03.130Z,27.59
2022-08-17T11:09:26.243Z,27.19
2022-08-17T11:12:32.457Z,27.03
2022-08-17T11:15:46.161Z,27.06
2022-08-17T11:19:09.878Z,27.08
2022-08-17T11:22:57.806Z,26.56
2022-08-17T11:26:08.334Z,26.76
2022-08-17T11:29:25.287Z,26.53
2022-08-17T11:32:38.330Z,26.37
2022-08-17T11:35:52.881Z,26.21
2022-08-17T11:39:00.860Z,26.02
2022-08-17T11:42:07.279Z,25.78
2022-08-17T11:45:31.813Z,25.90
2022-08-17T11:49:05.763Z,26.12
2022-08-17T11:52:36.062Z,26.71
2022-08-17T11:56:05.019Z,26.69
2022-08-17T11:59:41.919Z,26.53
2022-08-17T12:02:48.836Z,27.09
2022-08-17T12:06:01.788Z,27.21
2022-08-17T12:09:11.766Z,27.43
2022-08-17T12:12:15.606Z,27.53
2022-08-17T12:15:20.362Z,28.01
2022-08-17T12:18:28.712Z,28.96
2022-08-17T12:21:43.635Z,29.91
2022-08-17T12:24:51.506Z,30.44
2022-08-17T12:28:05.308Z,30.72
2022-08-17T12:31:23.347Z,30.78
2022-08-17T12:34:29.277Z,31.11
2022-08-17T12:37:33.744Z,31.48
2022-08-17T12:40:36.530Z,31.28
2022-08-17T12:43:39.215Z,30.55
2022-08-17T12:46:51.469Z,29.99
2022-08-17T12:50:08.178Z,29.32
2022-08-17T12:53:35.094Z,29.47
2022-08-17T12:56:38.105Z,29.95
2022-08-17T12:59:43.678Z,30.41
2022-08-17T13:02:50.699Z,31.42
2022-08-17T13:06:00.608Z,34.12
2022-08-17T13:09:10.326Z,40.47
2022-08-17T13:12:12.930Z,43.82
2022-08-17T13:15:21.269Z,44.19
2022-08-17T13:18:39.825Z,46.41
2022-08-17T13:21:47.912Z,46.54
2022-08-17T13:24:54.338Z,44.31
2022-08-17T13:27:57.478Z,46.12
2022-08-17T13:31:21.889Z,45.55
2022-08-17T13:34:48.974Z,46.37
2022-08-17T13:38:06.803Z,49.11
2022-08-17T13:41:09.488Z,51.06
2022-08-17T13:44:36.974Z,49.56
2022-08-17T13:47:41.310Z,51.32
2022-08-17T13:50:46.391Z,51.71
2022-08-17T13:53:55.335Z,50.54
2022-08-17T13:57:07.861Z,47.28
2022-08-17T14:00:17.498Z,49.60
2022-08-17T14:03:21.268Z,51.53
2022-08-17T14:06:51.838Z,50.71
2022-08-17T14:09:50.830Z,47.02
2022-08-17T14:12:53.928Z,46.22
2022-08-17T14:15:56.876Z,46.87
2022-08-17T14:18:59.718Z,46.61
2022-08-17T14:22:02.554Z,47.69
2022-08-17T14:25:08.701Z,48.78
2022-08-17T14:28:13.460Z,48.82
2022-08-17T14:31:16.040Z,49.51
2022-08-17T14:34:18.926Z,48.48
2022-08-17T14:37:26.280Z,44.02
2022-08-17T14:40:30.248Z,42.36
2022-08-17T14:43:34.443Z,44.05
2022-08-17T14:46:36.994Z,45.89
2022-08-17T14:49:39.593Z,46.98
2022-08-17T14:52:42.612Z,44.63
2022-08-17T14:55:47.244Z,42.44
2022-08-17T14:58:51.838Z,42.37
2022-08-17T15:01:55.901Z,43.71
2022-08-17T15:05:02.554Z,43.00
2022-08-17T15:08:05.912Z,41.34
2022-08-17T15:11:12.998Z,40.06
2022-08-17T15:14:17.187Z,38.72
2022-08-17T15:17:19.865Z,38.40
2022-08-17T15:20:27.540Z,38.27
2022-08-17T15:23:30.158Z,39.09
2022-08-17T15:26:34.266Z,39.70
2022-08-17T15:29:36.887Z,40.85
2022-08-17T15:32:50.819Z,43.26
2022-08-17T15:35:59.055Z,46.15
2022-08-17T15:39:01.665Z,47.54
2022-08-17T15:42:06.082Z,49.27
2022-08-17T15:45:11.487Z,48.51
2022-08-17T15:48:15.214Z,47.61
2022-08-17T15:51:20.681Z,43.83
2022-08-17T15:54:24.114Z,39.87
2022-08-17T15:57:28.768Z,36.80
2022-08-17T16:00:39.802Z,35.64
2022-08-17T16:04:03.772Z,34.90
2022-08-17T16:07:07.599Z,34.26
2022-08-17T16:10:14.177Z,33.45
2022-08-17T16:13:22.568Z,32.85
2022-08-17T16:16:26.074Z,32.58
2022-08-17T16:19:28.828Z,32.22
2022-08-17T16:22:33.621Z,31.90
2022-08-17T16:25:38.438Z,31.62
2022-08-17T16:28:58.431Z,31.66
2022-08-17T16:32:08.632Z,31.76
2022-08-17T16:35:14.318Z,31.65
2022-08-17T16:38:17.152Z,31.77
2022-08-17T16:41:33.679Z,31.68
2022-08-17T16:44:37.733Z,31.40
2022-08-17T16:47:41.764Z,31.08
2022-08-17T16:51:03.600Z,30.83
2022-08-17T16:54:07.234Z,30.58
2022-08-17T16:57:10.023Z,30.34
2022-08-17T17:00:15.947Z,30.13
2022-08-17T17:03:21.155Z,30.00
2022-08-17T17:06:29.410Z,29.62
2022-08-17T17:09:36.574Z,29.31
2022-08-17T17:13:01.985Z,29.10
2022-08-17T17:16:14.100Z,28.90
2022-08-17T17:19:35.270Z,28.75
2022-08-17T17:22:48.103Z,28.62
2022-08-17T17:25:55.694Z,28.50
2022-08-17T17:29:07.976Z,28.37
2022-08-17T17:32:20.882Z,28.18
2022-08-17T17:35:26.550Z,28.03
2022-08-17T17:38:33.041Z,27.91
2022-08-17T17:41:41.577Z,27.77
2022-08-17T17:44:46.165Z,27.75
2022-08-17T17:47:54.393Z,27.59
2022-08-17T17:51:13.890Z,27.39
2022-08-17T17:54:47.565Z,27.27
2022-08-17T17:57:59.085Z,27.18
2022-08-17T18:01:14.061Z,27.02
2022-08-17T18:04:23.278Z,26.91
2022-08-17T18:07:32.248Z,26.73
2022-08-17T18:10:44.972Z,26.61
2022-08-17T18:14:02.920Z,26.50
2022-08-17T18:17:07.626Z,26.29
2022-08-17T18:20:11.631Z,26.24
2022-08-17T18:23:14.449Z,26.11
2022-08-17T18:26:36.926Z,26.00
2022-08-17T18:29:44.368Z,25.84
2022-08-17T18:32:47.314Z,25.81
2022-08-17T18:35:59.444Z,25.81
2022-08-17T18:39:11.574Z,25.66
2022-08-17T18:42:26.152Z,25.62
2022-08-17T18:45:34.282Z,25.51
2022-08-17T18:48:52.716Z,25.44
2022-08-17T18:52:12.963Z,25.38
2022-08-17T18:55:21.566Z,25.26
2022-08-17T18:58:26.470Z,25.22
2022-08-17T19:01:52.214Z,25.17
2022-08-17T19:05:08.371Z,25.16
2022-08-17T19:08:22.964Z,25.07
2022-08-17T19:11:29.089Z,25.02
2022-08-17T19:14:32.086Z,24.97
2022-08-17T19:17:42.506Z,24.93
2022-08-17T19:20:49.129Z,24.91
2022-08-17T19:23:59.031Z,24.85
2022-08-17T19:27:14.502Z,24.80
2022-08-17T19:30:17.890Z,24.70
2022-08-17T19:33:20.590Z,24.65
2022-08-17T19:36:37.735Z,24.61
2022-08-17T19:39:45.493Z,24.50
2022-08-17T19:42:54.126Z,24.50
2022-08-17T19:46:05.878Z,24.52
2022-08-17T19:49:14.544Z,24.43
2022-08-17T19:52:32.019Z,24.29
2022-08-17T19:55:44.859Z,24.25
2022-08-17T19:58:57.972Z,24.23
2022-08-17T20:02:04.146Z,24.28
2022-08-17T20:05:11.551Z,24.32
2022-08-17T20:08:18.744Z,24.24
2022-08-17T20:11:29.115Z,24.05
2022-08-17T20:14:36.049Z,23.96
2022-08-17T20:17:42.120Z,24.06
2022-08-17T20:20:50.147Z,24.12
2022-08-17T20:24:01.219Z,24.08
2022-08-17T20:27:14.403Z,23.88
2022-08-17T20:30:33.045Z,23.79
2022-08-17T20:33:38.617Z,23.63
2022-08-17T20:36:58.953Z,23.49
2022-08-17T20:40:22.145Z,23.47
2022-08-17T20:43:51.095Z,23.44
2022-08-17T20:46:58.095Z,23.37
2022-08-17T20:50:03.158Z,23.37
2022-08-17T20:53:08.605Z,23.33
2022-08-17T20:56:11.782Z,23.32
2022-08-17T21:02:44.661Z,23.61
2022-08-17T21:06:00.081Z,23.69
2022-08-17T21:09:30.222Z,23.78
2022-08-17T21:12:44.684Z,23.76
2022-08-17T21:15:51.699Z,23.87
2022-08-17T21:19:05.107Z,23.90
2022-08-17T21:22:17.887Z,23.98
2022-08-17T21:25:32.384Z,24.01
2022-08-17T21:29:00.929Z,23.97
2022-08-17T21:32:24.229Z,23.99
2022-08-17T21:35:31.581Z,24.02
2022-08-17T21:38:44.996Z,23.92
2022-08-17T21:41:52.829Z,23.99
2022-08-17T21:44:58.965Z,24.01
2022-08-17T21:48:12.664Z,24.01
2022-08-17T21:51:20.616Z,24.00
2022-08-17T21:54:33.896Z,23.95
2022-08-17T21:57:52.796Z,23.98
2022-08-17T22:01:14.735Z,23.85
2022-08-17T22:04:20.782Z,23.95
2022-08-17T22:07:35.875Z,23.93
2022-08-17T22:10:41.285Z,23.83
2022-08-17T22:13:44.253Z,23.53
2022-08-17T22:16:46.730Z,23.42
2022-08-17T22:19:52.703Z,23.22
2022-08-17T22:23:29.476Z,23.15
2022-08-17T22:27:01.666Z,22.79
2022-08-17T22:30:18.661Z,22.51
2022-08-17T22:33:40.920Z,22.08
2022-08-17T22:36:43.784Z,22.01
2022-08-17T22:39:58.637Z,22.08
2022-08-17T22:43:03.342Z,22.04
2022-08-17T22:46:08.575Z,22.10
2022-08-17T22:49:11.324Z,22.09
2022-08-17T22:52:32.078Z,22.15
2022-08-17T22:55:53.968Z,22.17
2022-08-17T22:59:17.072Z,22.03
2022-08-17T23:02:23.863Z,21.93
2022-08-17T23:05:26.820Z,21.81
2022-08-17T23:08:29.576Z,21.51
2022-08-17T23:11:48.810Z,21.38
2022-08-17T23:15:00.546Z,21.08
2022-08-17T23:18:05.274Z,20.70
2022-08-17T23:21:08.229Z,20.55
2022-08-17T23:24:10.961Z,20.55
2022-08-17T23:27:14.956Z,20.57
2022-08-17T23:30:17.862Z,20.43
2022-08-17T23:33:22.883Z,20.36
2022-08-17T23:36:27.038Z,20.33
2022-08-17T23:39:30.208Z,20.23
2022-08-17T23:42:34.844Z,20.34
2022-08-17T23:45:38.721Z,20.24
2022-08-17T23:48:42.037Z,20.33
2022-08-17T23:51:45.686Z,20.48
2022-08-17T23:54:48.648Z,20.51
2022-08-17T23:57:53.043Z,20.62
